createdAt,value
2022-11-10T00:00:47.124Z,100.00
2022-11-10T00:03:13.657Z,100.00
2022-11-10T00:05:40.112Z,100.00
2022-11-10T00:08:09.669Z,100.00
2022-11-10T00:10:57.399Z,100.00
2022-11-10T00:13:25.624Z,100.00
2022-11-10T00:16:10.674Z,100.00
2022-11-10T00:18:37.114Z,100.00
2022-11-10T00:21:05.776Z,100.00
2022-11-10T00:23:32.888Z,100.00
2022-11-10T00:25:59.734Z,100.00
2022-11-10T00:28:26.282Z,100.00
2022-11-10T00:30:52.706Z,100.00
2022-11-10T00:33:19.434Z,100.00
2022-11-10T00:35:46.092Z,100.00
2022-11-10T00:38:12.523Z,100.00
2022-11-10T00:40:38.986Z,100.00
2022-11-10T00:43:05.695Z,100.00
2022-11-10T00:45:32.260Z,100.00
2022-11-10T00:47:58.816Z,100.00
2022-11-10T00:50:25.455Z,100.00
2022-11-10T00:52:51.886Z,100.00
2022-11-10T00:55:18.478Z,100.00
2022-11-10T00:57:44.891Z,100.00
2022-11-10T01:00:11.703Z,100.00
2022-11-10T01:02:38.456Z,100.00
2022-11-10T01:05:05.174Z,100.00
2022-11-10T01:07:32.341Z,100.00
2022-11-10T01:09:58.901Z,100.00
2022-11-10T01:12:29.994Z,100.00
2022-11-10T01:14:57.237Z,100.00
2022-11-10T01:17:23.734Z,100.00
2022-11-10T01:19:50.267Z,100.00
2022-11-10T01:22:16.972Z,100.00
2022-11-10T01:24:43.427Z,100.00
2022-11-10T01:27:09.928Z,100.00
2022-11-10T01:29:36.395Z,100.00
2022-11-10T01:32:02.882Z,100.00
2022-11-10T01:34:29.382Z,100.00
2022-11-10T01:36:55.857Z,100.00
2022-11-10T01:39:22.342Z,100.00
2022-11-10T01:41:48.799Z,100.00
2022-11-10T01:44:21.774Z,100.00
2022-11-10T01:46:48.306Z,100.00
2022-11-10T01:49:17.678Z,100.00
2022-11-10T01:52:02.654Z,100.00
2022-11-10T01:54:36.169Z,100.00
2022-11-10T01:57:05.450Z,100.00
2022-11-10T01:59:37.133Z,100.00
2022-11-10T02:02:16.918Z,100.00
2022-11-10T02:04:43.509Z,100.00
2022-11-10T02:07:11.940Z,100.00
2022-11-10T02:09:43.596Z,100.00
2022-11-10T02:12:11.052Z,100.00
2022-11-10T02:14:38.085Z,100.00
2022-11-10T02:17:04.527Z,100.00
2022-11-10T02:19:39.225Z,100.00
2022-11-10T02:22:05.610Z,100.00
2022-11-10T02:24:32.519Z,100.00
2022-11-10T02:26:59.005Z,100.00
2022-11-10T02:29:25.829Z,100.00
2022-11-10T02:31:52.615Z,100.00
2022-11-10T02:34:19.009Z,100.00
2022-11-10T02:36:45.471Z,100.00
2022-11-10T02:39:16.463Z,100.00
2022-11-10T02:41:45.537Z,100.00
2022-11-10T02:44:11.979Z,100.00
2022-11-10T02:46:38.464Z,100.00
2022-11-10T02:49:08.025Z,100.00
2022-11-10T02:51:34.518Z,100.00
2022-11-10T02:54:01.009Z,100.00
2022-11-10T02:56:27.494Z,100.00
2022-11-10T02:58:54.019Z,100.00
2022-11-10T03:01:20.438Z,100.00
2022-11-10T03:03:46.921Z,100.00
2022-11-10T03:06:13.365Z,100.00
2022-11-10T03:08:39.876Z,100.00
2022-11-10T03:11:11.643Z,100.00
2022-11-10T03:13:59.895Z,100.00
2022-11-10T03:16:27.483Z,100.00
2022-11-10T03:18:53.918Z,100.00
2022-11-10T03:21:20.337Z,100.00
2022-11-10T03:23:46.763Z,100.00
2022-11-10T03:26:14.289Z,100.00
2022-11-10T03:28:40.737Z,100.00
2022-11-10T03:31:07.144Z,100.00
2022-11-10T03:33:33.542Z,100.00
2022-11-10T03:36:00.153Z,100.00
2022-11-10T03:38:27.727Z,100.00
2022-11-10T03:43:40.731Z,100.00
2022-11-10T03:46:08.375Z,100.00
2022-11-10T03:48:34.938Z,100.00
2022-11-10T03:51:01.365Z,100.00
2022-11-10T03:53:27.775Z,100.00
2022-11-10T03:55:54.191Z,100.00
2022-11-10T03:58:26.536Z,100.00
2022-11-10T04:00:54.401Z,100.00
2022-11-10T04:03:21.686Z,100.00
2022-11-10T04:06:07.225Z,100.00
2022-11-10T04:08:52.589Z,100.00
2022-11-10T04:11:37.862Z,100.00
2022-11-10T04:14:23.814Z,100.00
2022-11-10T04:16:53.044Z,100.00
2022-11-10T04:19:19.598Z,100.00
2022-11-10T04:21:46.307Z,100.00
2022-11-10T04:24:12.783Z,100.00
2022-11-10T04:26:40.545Z,100.00
2022-11-10T04:29:19.607Z,100.00
2022-11-10T04:31:46.266Z,100.00
2022-11-10T04:34:14.830Z,100.00
2022-11-10T04:36:44.868Z,100.00
2022-11-10T04:39:11.649Z,100.00
2022-11-10T04:41:38.181Z,100.00
2022-11-10T04:44:08.797Z,100.00
2022-11-10T04:46:37.391Z,100.00
2022-11-10T04:49:05.495Z,100.00
2022-11-10T04:51:36.709Z,100.00
2022-11-10T04:54:04.246Z,100.00
2022-11-10T04:56:30.664Z,100.00
2022-11-10T04:58:58.484Z,100.00
2022-11-10T05:01:31.328Z,100.00
2022-11-10T05:03:57.850Z,100.00
2022-11-10T05:06:24.612Z,100.00
2022-11-10T05:08:51.740Z,100.00
2022-11-10T05:11:19.048Z,100.00
2022-11-10T05:13:46.298Z,100.00
2022-11-10T05:16:13.375Z,100.00
2022-11-10T05:18:40.459Z,100.00
2022-11-10T05:21:06.996Z,100.00
2022-11-10T05:23:39.532Z,100.00
2022-11-10T05:26:11.134Z,100.00
2022-11-10T05:28:38.979Z,100.00
2022-11-10T05:31:06.185Z,100.00
2022-11-10T05:33:36.505Z,100.00
2022-11-10T05:36:05.661Z,100.00
2022-11-10T05:38:32.482Z,100.00
2022-11-10T05:40:58.929Z,100.00
2022-11-10T05:43:25.777Z,100.00
2022-11-10T05:45:52.372Z,100.00
2022-11-10T05:48:21.770Z,100.00
2022-11-10T05:50:48.366Z,100.00
2022-11-10T05:53:14.797Z,100.00
2022-11-10T05:55:47.010Z,100.00
2022-11-10T05:58:13.481Z,100.00
2022-11-10T06:00:39.908Z,100.00
2022-11-10T06:03:13.123Z,100.00
2022-11-10T06:05:39.625Z,100.00
2022-11-10T06:08:06.794Z,100.00
2022-11-10T06:10:34.341Z,100.00
2022-11-10T06:13:03.670Z,100.00
2022-11-10T06:15:30.171Z,100.00
2022-11-10T06:17:57.199Z,100.00
2022-11-10T06:20:24.622Z,100.00
2022-11-10T06:23:10.158Z,100.00
2022-11-10T06:25:38.122Z,100.00
2022-11-10T06:28:05.932Z,100.00
2022-11-10T06:30:34.968Z,100.00
2022-11-10T06:33:01.904Z,100.00
2022-11-10T06:35:29.832Z,100.00
2022-11-10T06:38:06.882Z,100.00
2022-11-10T06:40:33.735Z,100.00
2022-11-10T06:43:00.387Z,100.00
2022-11-10T06:45:28.450Z,100.00
2022-11-10T06:48:12.311Z,100.00
2022-11-10T06:50:38.763Z,100.00
2022-11-10T06:53:05.328Z,100.00
2022-11-10T06:55:32.421Z,100.00
2022-11-10T06:57:58.884Z,100.00
2022-11-10T07:00:26.736Z,100.00
2022-11-10T07:03:04.436Z,100.00
2022-11-10T07:05:32.800Z,100.00
2022-11-10T07:08:04.517Z,100.00
2022-11-10T07:10:31.892Z,100.00
2022-11-10T07:12:59.769Z,100.00
2022-11-10T07:15:26.519Z,100.00
2022-11-10T07:17:53.069Z,100.00
2022-11-10T07:20:19.673Z,100.00
2022-11-10T07:22:46.382Z,100.00
2022-11-10T07:25:12.911Z,100.00
2022-11-10T07:27:39.338Z,100.00
2022-11-10T07:30:06.668Z,100.00
2022-11-10T07:32:33.130Z,100.00
2022-11-10T07:34:59.514Z,100.00
2022-11-10T07:37:25.941Z,100.00
2022-11-10T07:39:52.442Z,100.00
2022-11-10T07:42:18.900Z,100.00
2022-11-10T07:44:45.472Z,100.00
2022-11-10T07:47:11.907Z,100.00
2022-11-10T07:49:38.345Z,100.00
2022-11-10T07:52:10.221Z,100.00
2022-11-10T07:54:36.626Z,100.00
2022-11-10T07:57:03.054Z,100.00
2022-11-10T07:59:29.447Z,100.00
2022-11-10T08:01:55.847Z,100.00
2022-11-10T08:04:22.270Z,100.00
2022-11-10T08:06:48.894Z,100.00
2022-11-10T08:09:15.595Z,100.00
2022-11-10T08:11:42.181Z,100.00
2022-11-10T08:14:08.635Z,100.00
2022-11-10T08:16:35.104Z,100.00
2022-11-10T08:19:01.537Z,100.00
2022-11-10T08:21:27.972Z,100.00
2022-11-10T08:23:54.439Z,100.00
2022-11-10T08:26:21.456Z,100.00
2022-11-10T08:28:48.128Z,100.00
2022-11-10T08:31:14.653Z,100.00
2022-11-10T08:33:41.098Z,100.00
2022-11-10T08:36:08.243Z,100.00
2022-11-10T08:38:35.001Z,100.00
2022-11-10T08:41:01.472Z,100.00
2022-11-10T08:43:28.342Z,100.00
2022-11-10T08:45:56.968Z,100.00
2022-11-10T08:48:24.068Z,100.00
2022-11-10T08:50:51.490Z,100.00
2022-11-10T08:53:20.988Z,100.00
2022-11-10T08:55:48.093Z,100.00
2022-11-10T08:58:16.591Z,100.00
2022-11-10T09:00:43.303Z,100.00
2022-11-10T09:03:22.228Z,100.00
2022-11-10T09:05:55.046Z,100.00
2022-11-10T09:08:23.260Z,100.00
2022-11-10T09:10:51.123Z,100.00
2022-11-10T09:13:26.094Z,100.00
2022-11-10T09:15:56.548Z,100.00
2022-11-10T09:18:22.983Z,100.00
2022-11-10T09:20:49.428Z,100.00
2022-11-10T09:23:18.823Z,100.00
2022-11-10T09:25:50.645Z,100.00
2022-11-10T09:28:17.777Z,100.00
2022-11-10T09:30:48.934Z,100.00
2022-11-10T09:33:16.112Z,100.00
2022-11-10T09:35:43.052Z,100.00
2022-11-10T09:38:09.943Z,100.00
2022-11-10T09:40:42.277Z,100.00
2022-11-10T09:43:16.155Z,100.00
2022-11-10T09:45:46.882Z,100.00
2022-11-10T09:48:31.395Z,100.00
2022-11-10T09:51:12.743Z,100.00
2022-11-10T09:53:48.750Z,100.00
2022-11-10T09:56:21.564Z,100.00
2022-11-10T09:58:48.167Z,100.00
2022-11-10T10:01:38.880Z,100.00
2022-11-10T10:04:29.932Z,100.00
2022-11-10T10:07:13.242Z,100.00
2022-11-10T10:10:02.477Z,100.00
2022-11-10T10:13:02.925Z,100.00
2022-11-10T10:15:44.957Z,100.00
2022-11-10T10:18:43.609Z,100.00
2022-11-10T10:21:27.366Z,100.00
2022-11-10T10:24:11.077Z,100.00
2022-11-10T10:26:49.250Z,100.00
2022-11-10T10:29:23.375Z,100.00
2022-11-10T10:31:53.377Z,100.00
2022-11-10T10:34:30.141Z,100.00
2022-11-10T10:36:56.628Z,100.00
2022-11-10T10:39:30.361Z,100.00
2022-11-10T10:41:57.359Z,100.00
2022-11-10T10:44:24.150Z,100.00
2022-11-10T10:46:51.726Z,100.00
2022-11-10T10:49:29.758Z,100.00
2022-11-10T10:52:13.558Z,100.00
2022-11-10T10:54:40.383Z,100.00
2022-11-10T10:57:21.355Z,100.00
2022-11-10T10:59:47.933Z,100.00
2022-11-10T11:02:29.663Z,97.42
2022-11-10T11:05:14.538Z,97.96
2022-11-10T11:07:41.999Z,97.07
2022-11-10T11:10:33.674Z,91.70
2022-11-10T11:13:32.499Z,82.24
2022-11-10T11:16:01.195Z,76.94
2022-11-10T11:18:30.070Z,74.36
2022-11-10T11:20:59.433Z,70.67
2022-11-10T11:23:56.442Z,66.41
2022-11-10T11:26:32.524Z,62.53
2022-11-10T11:29:32.191Z,64.06
2022-11-10T11:32:17.303Z,63.95
2022-11-10T11:35:15.901Z,64.74
2022-11-10T11:38:02.916Z,63.40
2022-11-10T11:40:29.321Z,69.94
2022-11-10T11:43:12.733Z,69.77
2022-11-10T11:45:48.172Z,64.43
2022-11-10T11:48:18.506Z,69.51
2022-11-10T11:50:59.114Z,69.10
2022-11-10T11:53:56.900Z,77.60
2022-11-10T11:56:30.689Z,71.04
2022-11-10T11:59:24.520Z,70.31
2022-11-10T12:02:34.449Z,71.48
2022-11-10T12:05:19.164Z,67.52
2022-11-10T12:08:06.981Z,66.16
2022-11-10T12:11:07.704Z,63.71
2022-11-10T12:13:34.213Z,62.27
2022-11-10T12:16:00.703Z,62.85
2022-11-10T12:18:31.461Z,61.01
2022-11-10T12:21:13.249Z,57.03
2022-11-10T12:23:55.026Z,55.83
2022-11-10T12:26:33.533Z,51.53
2022-11-10T12:29:17.685Z,51.38
2022-11-10T12:31:47.683Z,53.81
2022-11-10T12:34:33.710Z,53.77
2022-11-10T12:37:02.985Z,53.92
2022-11-10T12:39:47.930Z,59.36
2022-11-10T12:42:21.407Z,58.97
2022-11-10T12:45:17.299Z,59.01
2022-11-10T12:47:45.086Z,61.53
2022-11-10T12:50:33.281Z,63.98
2022-11-10T12:53:05.119Z,61.04
2022-11-10T12:55:39.727Z,64.46
2022-11-10T12:58:07.247Z,65.14
2022-11-10T13:00:54.490Z,62.75
2022-11-10T13:03:27.441Z,61.61
2022-11-10T13:06:00.598Z,62.16
2022-11-10T13:08:43.755Z,56.74
2022-11-10T13:11:12.893Z,57.16
2022-11-10T13:13:53.161Z,58.48
2022-11-10T13:16:40.483Z,57.17
2022-11-10T13:19:12.022Z,54.34
2022-11-10T13:21:50.854Z,52.73
2022-11-10T13:24:23.889Z,51.94
2022-11-10T13:26:55.271Z,53.77
2022-11-10T13:29:31.857Z,51.48
2022-11-10T13:32:00.205Z,53.27
2022-11-10T13:34:37.759Z,49.34
2022-11-10T13:37:33.148Z,49.62
2022-11-10T13:40:36.301Z,45.26
2022-11-10T13:43:03.167Z,46.38
2022-11-10T13:45:29.717Z,46.67
2022-11-10T13:48:06.643Z,46.88
2022-11-10T13:51:04.074Z,47.23
2022-11-10T13:54:07.230Z,46.11
2022-11-10T13:57:00.779Z,48.46
2022-11-10T13:59:30.372Z,49.15
2022-11-10T14:02:38.794Z,50.38
2022-11-10T14:05:07.453Z,48.44
2022-11-10T14:07:41.395Z,48.04
2022-11-10T14:10:15.871Z,50.83
2022-11-10T14:13:03.739Z,53.73
2022-11-10T14:15:39.854Z,54.35
2022-11-10T14:18:18.281Z,52.72
2022-11-10T14:20:47.607Z,52.15
2022-11-10T14:23:24.049Z,53.98
2022-11-10T14:25:58.822Z,52.23
2022-11-10T14:28:33.908Z,55.36
2022-11-10T14:31:00.888Z,55.94
2022-11-10T14:33:27.606Z,61.31
2022-11-10T14:35:58.483Z,63.53
2022-11-10T14:38:29.426Z,68.64
2022-11-10T14:40:58.996Z,70.57
2022-11-10T14:43:34.669Z,73.36
2022-11-10T14:46:03.266Z,74.60
2022-11-10T14:48:32.590Z,74.82
2022-11-10T14:51:05.455Z,77.32
2022-11-10T14:53:37.506Z,79.50
2022-11-10T14:56:07.312Z,80.57
2022-11-10T14:58:39.289Z,82.57
2022-11-10T15:01:07.109Z,83.32
2022-11-10T15:03:35.694Z,84.23
2022-11-10T15:06:04.644Z,84.39
2022-11-10T15:08:33.219Z,85.26
2022-11-10T15:10:59.789Z,87.29
2022-11-10T15:13:33.259Z,88.52
2022-11-10T15:16:21.722Z,89.37
2022-11-10T15:18:51.005Z,89.40
2022-11-10T15:21:20.222Z,90.17
2022-11-10T15:23:52.931Z,90.01
2022-11-10T15:26:26.174Z,91.12
2022-11-10T15:28:53.100Z,91.45
2022-11-10T15:31:31.302Z,92.25
2022-11-10T15:34:04.230Z,91.94
2022-11-10T15:36:32.349Z,92.88
2022-11-10T15:39:11.577Z,92.42
2022-11-10T15:41:43.563Z,93.35
2022-11-10T15:44:30.141Z,94.52
2022-11-10T15:46:58.851Z,94.43
2022-11-10T15:49:32.576Z,94.86
2022-11-10T15:52:02.452Z,94.60
2022-11-10T15:54:34.256Z,93.78
2022-11-10T15:57:01.235Z,94.77
2022-11-10T15:59:27.985Z,94.41
2022-11-10T16:01:54.523Z,94.78
2022-11-10T16:04:21.025Z,95.41
2022-11-10T16:06:47.548Z,95.37
2022-11-10T16:09:14.204Z,95.38
2022-11-10T16:11:43.865Z,95.33
2022-11-10T16:14:15.172Z,96.15
2022-11-10T16:16:42.614Z,96.57
2022-11-10T16:19:12.737Z,96.46
2022-11-10T16:21:40.281Z,96.24
2022-11-10T16:24:06.878Z,96.53
2022-11-10T16:26:34.884Z,98.07
2022-11-10T16:29:02.722Z,98.53
2022-11-10T16:31:30.271Z,99.48
2022-11-10T16:33:56.703Z,98.54
2022-11-10T16:36:31.649Z,98.68
2022-11-10T16:39:18.406Z,99.91
2022-11-10T16:41:45.228Z,99.35
2022-11-10T16:44:13.861Z,100.00
2022-11-10T16:46:42.457Z,100.00
2022-11-10T16:49:26.085Z,100.00
2022-11-10T16:51:52.834Z,100.00
2022-11-10T16:54:19.352Z,100.00
2022-11-10T16:56:45.817Z,100.00
2022-11-10T16:59:13.422Z,100.00
2022-11-10T17:01:43.822Z,100.00
2022-11-10T17:04:13.195Z,100.00
2022-11-10T17:06:40.309Z,100.00
2022-11-10T17:09:26.584Z,100.00
2022-11-10T17:11:53.023Z,100.00
2022-11-10T17:14:21.570Z,100.00
2022-11-10T17:16:48.064Z,100.00
2022-11-10T17:19:25.244Z,100.00
2022-11-10T17:21:53.869Z,100.00
2022-11-10T17:24:20.770Z,100.00
2022-11-10T17:26:47.865Z,100.00
2022-11-10T17:29:20.912Z,100.00
2022-11-10T17:31:50.151Z,100.00
2022-11-10T17:34:16.579Z,100.00
2022-11-10T17:36:43.499Z,100.00
2022-11-10T17:39:15.130Z,100.00
2022-11-10T17:41:41.712Z,100.00
2022-11-10T17:44:14.152Z,100.00
2022-11-10T17:46:41.581Z,100.00
2022-11-10T17:49:08.420Z,100.00
2022-11-10T17:51:36.664Z,100.00
2022-11-10T17:54:06.312Z,100.00
2022-11-10T17:56:33.100Z,100.00
2022-11-10T17:58:59.927Z,100.00
2022-11-10T18:01:26.482Z,100.00
2022-11-10T18:03:53.018Z,100.00
2022-11-10T18:06:20.658Z,100.00
2022-11-10T18:08:47.890Z,100.00
2022-11-10T18:11:17.446Z,100.00
2022-11-10T18:13:44.655Z,100.00
2022-11-10T18:16:12.998Z,100.00
2022-11-10T18:18:39.932Z,100.00
2022-11-10T18:21:07.601Z,100.00
2022-11-10T18:23:34.253Z,100.00
2022-11-10T18:26:08.429Z,100.00
2022-11-10T18:28:35.851Z,100.00
2022-11-10T18:31:09.889Z,100.00
2022-11-10T18:33:36.965Z,100.00
2022-11-10T18:36:03.980Z,100.00
2022-11-10T18:38:30.634Z,100.00
2022-11-10T18:41:20.866Z,100.00
2022-11-10T18:43:47.293Z,100.00
2022-11-10T18:46:13.708Z,100.00
2022-11-10T18:48:41.122Z,100.00
2022-11-10T18:51:07.571Z,100.00
2022-11-10T18:53:38.190Z,100.00
2022-11-10T18:56:05.449Z,100.00
2022-11-10T18:58:31.940Z,100.00
2022-11-10T19:01:02.901Z,100.00
2022-11-10T19:03:29.326Z,100.00
2022-11-10T19:05:58.765Z,100.00
2022-11-10T19:08:27.423Z,100.00
2022-11-10T19:10:55.201Z,100.00
2022-11-10T19:13:22.594Z,100.00
2022-11-10T19:15:49.422Z,100.00
2022-11-10T19:18:16.059Z,100.00
2022-11-10T19:20:42.718Z,100.00
2022-11-10T19:23:09.215Z,100.00
2022-11-10T19:25:35.640Z,100.00
2022-11-10T19:28:02.177Z,100.00
2022-11-10T19:30:31.672Z,100.00
2022-11-10T19:32:58.178Z,100.00
2022-11-10T19:35:24.625Z,100.00
2022-11-10T19:37:53.995Z,100.00
2022-11-10T19:40:21.502Z,100.00
2022-11-10T19:42:48.166Z,100.00
2022-11-10T19:45:15.485Z,100.00
2022-11-10T19:47:42.767Z,100.00
2022-11-10T19:50:09.465Z,100.00
2022-11-10T19:52:35.973Z,100.00
2022-11-10T19:55:02.578Z,100.00
2022-11-10T19:57:29.084Z,100.00
2022-11-10T19:59:55.797Z,100.00
2022-11-10T20:02:22.230Z,100.00
2022-11-10T20:05:07.503Z,100.00
2022-11-10T20:07:52.254Z,100.00
2022-11-10T20:10:18.681Z,100.00
2022-11-10T20:12:45.169Z,100.00
2022-11-10T20:15:11.703Z,100.00
2022-11-10T20:17:38.126Z,100.00
2022-11-10T20:20:05.341Z,100.00
2022-11-10T20:22:31.755Z,100.00
2022-11-10T20:24:58.207Z,100.00
2022-11-10T20:27:25.154Z,100.00
2022-11-10T20:29:51.611Z,100.00
2022-11-10T20:32:18.060Z,100.00
2022-11-10T20:34:44.516Z,100.00
2022-11-10T20:37:10.916Z,100.00
2022-11-10T20:39:37.375Z,100.00
2022-11-10T20:42:03.970Z,100.00
2022-11-10T20:44:30.527Z,100.00
2022-11-10T20:46:57.232Z,100.00
2022-11-10T20:49:23.799Z,100.00
2022-11-10T20:51:50.237Z,100.00
2022-11-10T20:54:17.331Z,100.00
2022-11-10T20:56:43.822Z,100.00
2022-11-10T20:59:11.160Z,100.00
2022-11-10T21:01:37.865Z,100.00
2022-11-10T21:04:06.083Z,100.00
2022-11-10T21:06:32.850Z,100.00
2022-11-10T21:08:59.405Z,100.00
2022-11-10T21:11:44.444Z,100.00
2022-11-10T21:14:10.848Z,100.00
2022-11-10T21:16:37.297Z,100.00
2022-11-10T21:19:03.827Z,100.00
2022-11-10T21:21:36.086Z,100.00
2022-11-10T21:24:07.066Z,100.00
2022-11-10T21:26:35.555Z,100.00
2022-11-10T21:29:03.214Z,100.00
2022-11-10T21:31:30.634Z,100.00
2022-11-10T21:34:00.416Z,100.00
2022-11-10T21:36:29.387Z,100.00
2022-11-10T21:38:56.884Z,100.00
2022-11-10T21:41:23.474Z,100.00
2022-11-10T21:43:50.060Z,100.00
2022-11-10T21:46:16.650Z,100.00
2022-11-10T21:48:43.222Z,100.00
2022-11-10T21:51:11.020Z,100.00
2022-11-10T21:53:39.059Z,100.00
2022-11-10T21:56:08.211Z,100.00
2022-11-10T21:58:34.968Z,100.00
2022-11-10T22:01:11.808Z,100.00
2022-11-10T22:03:38.719Z,100.00
2022-11-10T22:06:10.540Z,100.00
2022-11-10T22:08:38.374Z,100.00
2022-11-10T22:11:24.707Z,100.00
2022-11-10T22:14:09.361Z,100.00
2022-11-10T22:17:12.625Z,100.00
2022-11-10T22:19:39.120Z,100.00
2022-11-10T22:22:06.009Z,100.00
2022-11-10T22:24:33.687Z,100.00
2022-11-10T22:27:02.137Z,100.00
2022-11-10T22:29:31.990Z,100.00
2022-11-10T22:31:59.878Z,100.00
2022-11-10T22:34:26.381Z,100.00
2022-11-10T22:36:54.618Z,100.00
2022-11-10T22:39:21.175Z,100.00
2022-11-10T22:42:06.601Z,100.00
2022-11-10T22:44:33.398Z,100.00
2022-11-10T22:47:02.921Z,100.00
2022-11-10T22:49:29.372Z,100.00
2022-11-10T22:51:55.834Z,100.00
2022-11-10T22:54:23.557Z,100.00
2022-11-10T22:56:51.010Z,100.00
2022-11-10T22:59:17.892Z,100.00
2022-11-10T23:01:44.693Z,100.00
